CheckWX is a tool to help pilots better visualize weather data.  It is not intended as a substitute for an official pre-flight weather briefing.

02:24:45 UTC

LEGR METAR
Federico Garcia Lorca Airport
Granada, Spain
Current

25 mins ago

LEGR 080200Z AUTO 26001KT CAVOK 22/09 Q1016
Observed
Jul-8 @ 02:00 UTC
Wind
  • 260° at 1 KTS
Visibility
10,000+ meters
Flight Rules
VFR
Cloud Levels
  • Clear skies
Temperature
22°C / 72°F
Dewpoint
C / 48°F
Humidity
44%
Altimeter
30" Hg
Pressure
1015.92 hPa
Previous

55 mins ago

LEGR 080130Z AUTO 00000KT CAVOK 22/08 Q1016
Observed
Jul-8 @ 01:30 UTC
Visibility
10,000+ meters
Flight Rules
VFR
Cloud Levels
  • Clear skies
Temperature
22°C / 72°F
Dewpoint
C / 46°F
Humidity
41%
Altimeter
30" Hg
Pressure
1015.92 hPa
Previous

1 hour ago

LEGR 080100Z AUTO VRB01KT CAVOK 23/08 Q1017
Observed
Jul-8 @ 01:00 UTC
Wind
  • Variable at 1 KTS
Visibility
10,000+ meters
Flight Rules
VFR
Cloud Levels
  • Clear skies
Temperature
23°C / 73°F
Dewpoint
C / 46°F
Humidity
38%
Altimeter
30.03" Hg
Pressure
1016.92 hPa